Time;durP1;ratioP1;P1;durP2;ratioP2;P2;SDS_P1;SDS_P2;PMS_P1;PMS_P2;Temp;Humidity;BMP_temperature;BMP_pressure;BME280_temperature;BME280_humidity;BME280_pressure;Samples;Min_cycle;Max_cycle;Signal;HPM_P1;HPM_P2
2022/07/19 00:00:09;;;;;;;;;;;23.50;64.50;;;;;;5038219;28;19921;-71
2022/07/19 00:02:37;;;;;;;;;;;23.50;65.20;;;;;;5020011;28;19928;-71
2022/07/19 00:05:06;;;;;;;;;;;23.50;64.80;;;;;;5038388;28;19924;-72
2022/07/19 00:07:34;;;;;;;;;;;23.40;65.80;;;;;;5020051;28;20249;-72
2022/07/19 00:10:02;;;;;;;;;;;23.40;64.90;;;;;;5021056;28;19921;-71
2022/07/19 00:12:30;;;;;;;;;;;23.40;65.40;;;;;;5038011;28;19921;-71
2022/07/19 00:14:57;;;;;;;;;;;23.40;65.70;;;;;;5037171;28;19921;-71
2022/07/19 00:17:25;;;;;;;;;;;23.30;64.80;;;;;;5038035;28;19921;-71
2022/07/19 00:19:52;;;;;;;;;;;23.30;65.90;;;;;;5038071;28;20382;-72
2022/07/19 00:22:19;;;;;;;;;;;23.20;65.20;;;;;;5019560;28;19932;-72
2022/07/19 00:24:47;;;;;;;;;;;23.20;65.90;;;;;;5021029;28;19921;-71
2022/07/19 00:27:15;;;;;;;;;;;23.20;65.20;;;;;;5036650;28;20378;-71
2022/07/19 00:29:42;;;;;;;;;;;23.10;66.00;;;;;;5037693;28;19921;-71
2022/07/19 00:32:10;;;;;;;;;;;23.10;65.70;;;;;;5004391;28;19928;-71
2022/07/19 00:34:37;;;;;;;;;;;23.10;65.40;;;;;;5036759;28;19921;-71
2022/07/19 00:37:05;;;;;;;;;;;23.00;66.10;;;;;;5028337;28;20263;-71
2022/07/19 00:39:32;;;;;;;;;;;23.00;66.30;;;;;;5057003;28;19921;-71
2022/07/19 00:42:01;;;;;;;;;;;23.00;66.70;;;;;;5055539;28;19974;-71
2022/07/19 00:44:30;;;;;;;;;;;23.00;66.50;;;;;;5056752;28;19921;-71
2022/07/19 00:46:57;;;;;;;;;;;22.90;66.30;;;;;;5056199;28;19921;-71
2022/07/19 00:49:24;;;;;;;;;;;22.90;67.00;;;;;;5057227;28;19921;-71
2022/07/19 00:51:53;;;;;;;;;;;22.90;67.00;;;;;;5057303;28;19920;-71
2022/07/19 00:54:21;;;;;;;;;;;22.80;67.10;;;;;;5056132;28;19920;-71
2022/07/19 00:56:51;;;;;;;;;;;22.80;66.70;;;;;;5056243;28;19921;-71
2022/07/19 00:59:18;;;;;;;;;;;22.80;66.70;;;;;;5057071;28;19921;-72
2022/07/19 01:01:46;;;;;;;;;;;22.80;66.80;;;;;;5038652;28;20363;-72
2022/07/19 01:04:14;;;;;;;;;;;22.80;66.90;;;;;;5057046;28;19920;-71
2022/07/19 01:06:42;;;;;;;;;;;22.70;66.70;;;;;;5056968;28;20352;-71
2022/07/19 01:09:09;;;;;;;;;;;22.70;67.60;;;;;;5055879;28;19920;-71
2022/07/19 01:11:38;;;;;;;;;;;22.70;67.20;;;;;;5039405;28;19920;-71
2022/07/19 01:14:06;;;;;;;;;;;22.70;66.90;;;;;;5056064;28;19928;-71
2022/07/19 01:16:33;;;;;;;;;;;22.60;67.20;;;;;;5056856;28;19920;-72
2022/07/19 01:19:04;;;;;;;;;;;22.60;67.10;;;;;;5055687;28;19927;-71
2022/07/19 01:21:32;;;;;;;;;;;22.60;67.50;;;;;;5054904;28;19921;-71
2022/07/19 01:24:00;;;;;;;;;;;22.50;67.20;;;;;;5056935;28;19920;-71
2022/07/19 01:26:27;;;;;;;;;;;22.50;67.80;;;;;;5055844;28;19920;-71
2022/07/19 01:28:55;;;;;;;;;;;22.40;67.70;;;;;;5055388;28;19921;-71
2022/07/19 01:31:22;;;;;;;;;;;22.40;67.70;;;;;;5056500;28;19925;-71
2022/07/19 01:33:50;;;;;;;;;;;22.40;67.40;;;;;;5038536;28;19939;-71
2022/07/19 01:36:17;;;;;;;;;;;22.40;67.90;;;;;;5055348;28;19921;-71
2022/07/19 01:38:45;;;;;;;;;;;22.30;67.50;;;;;;5036618;28;19928;-71
2022/07/19 01:41:12;;;;;;;;;;;22.30;67.90;;;;;;5035305;28;19932;-72
2022/07/19 01:43:40;;;;;;;;;;;22.30;67.80;;;;;;5036545;28;20343;-71
2022/07/19 01:46:07;;;;;;;;;;;22.20;67.70;;;;;;5036930;28;19925;-71
2022/07/19 01:48:35;;;;;;;;;;;22.20;67.60;;;;;;5035230;28;19921;-71
2022/07/19 01:51:02;;;;;;;;;;;22.20;67.80;;;;;;5019011;28;19940;-71
2022/07/19 01:53:30;;;;;;;;;;;22.20;68.20;;;;;;5036387;28;19921;-72
2022/07/19 01:55:57;;;;;;;;;;;22.20;68.40;;;;;;5017939;28;19925;-72
2022/07/19 01:58:24;;;;;;;;;;;22.20;67.80;;;;;;5035987;28;19932;-71
2022/07/19 02:00:52;;;;;;;;;;;22.10;68.20;;;;;;5035523;28;19928;-71
2022/07/19 02:03:19;;;;;;;;;;;22.10;68.30;;;;;;5018749;28;19921;-71
2022/07/19 02:05:47;;;;;;;;;;;22.10;68.30;;;;;;5035916;28;20395;-71
2022/07/19 02:08:15;;;;;;;;;;;22.10;68.40;;;;;;5017603;28;19921;-71
2022/07/19 02:10:43;;;;;;;;;;;22.00;68.40;;;;;;5035901;28;19932;-71
2022/07/19 02:13:10;;;;;;;;;;;22.00;68.10;;;;;;5018602;28;19921;-71
2022/07/19 02:15:37;;;;;;;;;;;22.00;68.70;;;;;;5034764;28;19925;-71
2022/07/19 02:18:05;;;;;;;;;;;22.00;68.50;;;;;;5018596;28;19921;-71
2022/07/19 02:20:32;;;;;;;;;;;21.90;68.60;;;;;;5034594;28;19928;-71
2022/07/19 02:23:00;;;;;;;;;;;21.90;68.50;;;;;;5035517;28;20310;-71
2022/07/19 02:25:27;;;;;;;;;;;21.90;68.50;;;;;;5018941;28;19936;-71
2022/07/19 02:27:55;;;;;;;;;;;21.90;68.90;;;;;;5034433;28;19928;-71
2022/07/19 02:30:22;;;;;;;;;;;21.90;69.20;;;;;;5036055;28;19921;-71
2022/07/19 02:32:49;;;;;;;;;;;21.80;68.90;;;;;;5035773;28;19921;-71
2022/07/19 02:35:18;;;;;;;;;;;21.80;69.00;;;;;;5034330;28;19921;-71
2022/07/19 02:37:45;;;;;;;;;;;21.70;69.20;;;;;;5035064;28;19928;-71
2022/07/19 02:40:13;;;;;;;;;;;21.80;69.20;;;;;;5035993;28;20375;-71
2022/07/19 02:42:40;;;;;;;;;;;21.70;68.90;;;;;;5034750;28;19928;-71
2022/07/19 02:45:08;;;;;;;;;;;21.70;69.20;;;;;;5035659;28;19925;-71
2022/07/19 02:47:35;;;;;;;;;;;21.70;69.50;;;;;;5034360;28;19928;-71
2022/07/19 02:50:03;;;;;;;;;;;21.70;69.20;;;;;;5017289;28;20280;-71
2022/07/19 02:52:30;;;;;;;;;;;21.70;69.10;;;;;;5035116;28;19932;-71
2022/07/19 02:54:58;;;;;;;;;;;21.70;69.00;;;;;;5034429;28;19931;-71
2022/07/19 02:57:25;;;;;;;;;;;21.70;67.10;;;;;;5035147;28;19928;-71
2022/07/19 02:59:52;;;;;;;;;;;21.70;68.70;;;;;;5017937;28;20233;-71
2022/07/19 03:02:20;;;;;;;;;;;21.80;68.70;;;;;;5033971;28;19921;-71
2022/07/19 03:04:47;;;;;;;;;;;21.80;67.60;;;;;;5035234;28;19921;-71
2022/07/19 03:07:14;;;;;;;;;;;21.80;67.50;;;;;;5016743;28;20060;-71
2022/07/19 03:09:42;;;;;;;;;;;21.90;67.10;;;;;;5001367;28;20360;-71
2022/07/19 03:12:09;;;;;;;;;;;21.90;66.80;;;;;;5017595;28;19928;-71
2022/07/19 03:14:37;;;;;;;;;;;22.00;66.60;;;;;;5033994;28;19928;-71
2022/07/19 03:17:04;;;;;;;;;;;22.00;66.30;;;;;;5017624;28;19928;-71
2022/07/19 03:19:31;;;;;;;;;;;22.00;66.00;;;;;;5017472;28;20359;-71
2022/07/19 03:21:59;;;;;;;;;;;22.00;65.70;;;;;;5033946;28;19920;-71
2022/07/19 03:24:27;;;;;;;;;;;22.10;66.10;;;;;;5035016;28;19921;-71
2022/07/19 03:26:54;;;;;;;;;;;22.10;65.90;;;;;;5035175;28;19921;-71
2022/07/19 03:29:22;;;;;;;;;;;22.20;66.00;;;;;;5017695;28;19921;-71
2022/07/19 03:31:56;;;;;;;;;;;22.20;65.30;;;;;;5034715;28;19928;-71
2022/07/19 03:34:24;;;;;;;;;;;22.20;64.90;;;;;;5016893;28;19921;-71
2022/07/19 03:36:51;;;;;;;;;;;22.30;65.60;;;;;;5034472;28;19932;-71
2022/07/19 03:39:19;;;;;;;;;;;22.30;65.70;;;;;;5034869;28;20374;-71
2022/07/19 03:41:46;;;;;;;;;;;22.30;65.00;;;;;;5033579;28;19928;-71
2022/07/19 03:44:14;;;;;;;;;;;22.30;65.60;;;;;;5001207;28;19962;-71
2022/07/19 03:46:41;;;;;;;;;;;22.30;65.60;;;;;;5034842;28;19921;-71
2022/07/19 03:49:09;;;;;;;;;;;22.30;65.10;;;;;;5015970;28;19936;-71
2022/07/19 03:51:36;;;;;;;;;;;22.30;65.80;;;;;;5034942;28;20352;-71
2022/07/19 03:54:04;;;;;;;;;;;22.30;65.50;;;;;;5033775;28;19921;-71
2022/07/19 03:56:31;;;;;;;;;;;22.30;65.00;;;;;;5017551;28;20267;-71
2022/07/19 03:58:58;;;;;;;;;;;22.40;65.40;;;;;;5034670;28;20251;-72
2022/07/19 04:01:26;;;;;;;;;;;22.40;65.10;;;;;;5019309;28;19928;-71
2022/07/19 04:03:53;;;;;;;;;;;22.40;65.30;;;;;;5021145;28;19921;-71
2022/07/19 04:06:21;;;;;;;;;;;22.40;65.40;;;;;;5038204;28;20271;-71
2022/07/19 04:08:48;;;;;;;;;;;22.40;65.50;;;;;;5037345;28;20272;-71
2022/07/19 04:11:15;;;;;;;;;;;22.40;65.20;;;;;;5038285;28;20237;-71
2022/07/19 04:13:43;;;;;;;;;;;22.40;64.40;;;;;;5019591;28;20383;-71
2022/07/19 04:16:10;;;;;;;;;;;22.40;64.70;;;;;;5004494;28;19930;-71
2022/07/19 04:18:38;;;;;;;;;;;22.50;64.50;;;;;;5037960;28;20257;-71
2022/07/19 04:21:06;;;;;;;;;;;22.50;63.90;;;;;;5019838;28;20370;-71
2022/07/19 04:23:33;;;;;;;;;;;22.60;63.70;;;;;;5020814;28;19947;-71
2022/07/19 04:26:01;;;;;;;;;;;22.70;63.30;;;;;;5004190;28;19921;-71
2022/07/19 04:28:29;;;;;;;;;;;22.90;63.10;;;;;;5019555;28;20374;-71
2022/07/19 04:30:56;;;;;;;;;;;23.00;62.90;;;;;;5038134;28;19921;-71
2022/07/19 04:33:24;;;;;;;;;;;23.10;62.60;;;;;;5037669;28;20268;-72
2022/07/19 04:35:53;;;;;;;;;;;23.20;62.60;;;;;;5003041;28;19921;-71
2022/07/19 04:38:21;;;;;;;;;;;23.20;62.40;;;;;;5049137;28;19931;-72
2022/07/19 04:40:48;;;;;;;;;;;23.30;62.20;;;;;;5056277;28;20279;-71
2022/07/19 04:43:21;;;;;;;;;;;23.40;62.40;;;;;;5056962;28;20351;-71
2022/07/19 04:45:49;;;;;;;;;;;23.40;62.40;;;;;;5056625;28;19924;-71
2022/07/19 04:48:16;;;;;;;;;;;23.50;62.30;;;;;;5056201;28;19921;-71
2022/07/19 04:50:43;;;;;;;;;;;23.50;62.00;;;;;;5056636;28;19927;-71
2022/07/19 04:53:11;;;;;;;;;;;23.60;62.00;;;;;;5057385;28;19920;-71
2022/07/19 04:55:38;;;;;;;;;;;23.70;62.10;;;;;;5055347;28;19947;-71
2022/07/19 04:58:06;;;;;;;;;;;23.70;62.30;;;;;;5039462;28;20275;-72
2022/07/19 05:00:33;;;;;;;;;;;23.70;61.90;;;;;;5056055;28;19920;-71
2022/07/19 05:03:01;;;;;;;;;;;23.70;62.10;;;;;;5057053;28;19932;-71
2022/07/19 05:05:28;;;;;;;;;;;23.60;62.20;;;;;;5057126;28;19928;-71
2022/07/19 05:07:56;;;;;;;;;;;23.70;62.40;;;;;;5055882;28;19921;-71
2022/07/19 05:10:23;;;;;;;;;;;23.80;62.30;;;;;;5056911;28;19927;-71
2022/07/19 05:12:51;;;;;;;;;;;23.80;62.70;;;;;;5056348;28;19983;-71
2022/07/19 05:15:18;;;;;;;;;;;23.70;62.30;;;;;;5055086;28;20272;-71
2022/07/19 05:17:46;;;;;;;;;;;23.80;62.10;;;;;;5056710;28;19932;-71
2022/07/19 05:20:15;;;;;;;;;;;23.80;62.40;;;;;;5056733;28;20306;-71
2022/07/19 05:22:43;;;;;;;;;;;23.80;62.60;;;;;;5039962;28;19920;-71
2022/07/19 05:25:15;;;;;;;;;;;23.80;62.40;;;;;;5056661;28;19920;-71
2022/07/19 05:27:43;;;;;;;;;;;23.80;62.70;;;;;;5055494;28;19920;-71
2022/07/19 05:30:11;;;;;;;;;;;23.90;62.70;;;;;;5056519;28;19924;-71
2022/07/19 05:32:39;;;;;;;;;;;23.80;62.50;;;;;;5056646;28;19925;-71
2022/07/19 05:35:07;;;;;;;;;;;23.90;62.60;;;;;;5055367;28;19928;-71
2022/07/19 05:37:34;;;;;;;;;;;23.90;62.20;;;;;;5055772;28;19939;-72
2022/07/19 05:40:02;;;;;;;;;;;24.00;62.30;;;;;;5055780;28;19932;-72
2022/07/19 05:42:30;;;;;;;;;;;24.00;62.50;;;;;;5055247;28;19932;-71
2022/07/19 05:44:57;;;;;;;;;;;24.10;62.30;;;;;;5055723;28;19928;-71
2022/07/19 05:47:24;;;;;;;;;;;24.10;62.30;;;;;;5054204;28;19921;-71
2022/07/19 05:49:52;;;;;;;;;;;24.20;62.50;;;;;;5055427;28;20279;-71
2022/07/19 05:52:19;;;;;;;;;;;24.20;61.90;;;;;;5056210;28;20282;-71
2022/07/19 05:54:52;;;;;;;;;;;24.20;62.40;;;;;;5054012;28;19921;-71
2022/07/19 05:57:20;;;;;;;;;;;24.30;61.90;;;;;;5054904;28;19920;-71
2022/07/19 05:59:47;;;;;;;;;;;24.30;61.80;;;;;;5055878;28;19939;-72
2022/07/19 06:02:16;;;;;;;;;;;24.40;61.70;;;;;;5054894;28;20233;-72
2022/07/19 06:04:43;;;;;;;;;;;24.50;61.90;;;;;;5056222;28;19921;-71
2022/07/19 06:07:11;;;;;;;;;;;24.60;61.40;;;;;;5054759;28;19920;-71
2022/07/19 06:09:38;;;;;;;;;;;24.60;61.30;;;;;;5054914;28;19920;-71
2022/07/19 06:12:06;;;;;;;;;;;24.70;61.20;;;;;;5055920;28;19920;-71
2022/07/19 06:14:33;;;;;;;;;;;24.70;61.30;;;;;;5053878;28;19921;-71
2022/07/19 06:17:00;;;;;;;;;;;24.70;60.90;;;;;;5056106;28;19928;-71
2022/07/19 06:19:28;;;;;;;;;;;24.80;60.70;;;;;;5055537;28;19920;-71
2022/07/19 06:21:55;;;;;;;;;;;24.90;60.80;;;;;;5037296;28;20351;-72
2022/07/19 06:24:23;;;;;;;;;;;24.90;60.70;;;;;;5055315;28;19920;-71
2022/07/19 06:26:50;;;;;;;;;;;25.00;60.40;;;;;;5054450;28;19925;-71
2022/07/19 06:29:17;;;;;;;;;;;25.10;60.40;;;;;;5054322;28;19931;-71
2022/07/19 06:31:45;;;;;;;;;;;25.10;60.00;;;;;;5054505;28;19920;-71
2022/07/19 06:34:12;;;;;;;;;;;25.20;59.70;;;;;;5054198;28;19920;-71
2022/07/19 06:36:40;;;;;;;;;;;25.30;60.00;;;;;;5052002;28;19935;-71
2022/07/19 06:39:07;;;;;;;;;;;25.30;59.90;;;;;;5017971;28;19921;-71
2022/07/19 06:41:34;;;;;;;;;;;25.40;59.50;;;;;;5034117;28;19928;-71
2022/07/19 06:44:04;;;;;;;;;;;25.50;59.10;;;;;;5018503;28;19935;-71
2022/07/19 06:46:31;;;;;;;;;;;25.60;59.10;;;;;;5018238;28;19921;-71
2022/07/19 06:48:59;;;;;;;;;;;25.60;58.90;;;;;;5016158;28;19921;-71
2022/07/19 06:51:26;;;;;;;;;;;25.70;58.80;;;;;;5035006;28;19943;-71
2022/07/19 06:53:54;;;;;;;;;;;25.70;59.00;;;;;;5016621;28;19921;-72
2022/07/19 06:56:21;;;;;;;;;;;25.80;58.60;;;;;;5034888;28;19925;-73
2022/07/19 06:58:49;;;;;;;;;;;25.80;59.00;;;;;;5034768;28;19948;-72
2022/07/19 07:01:17;;;;;;;;;;;25.80;58.40;;;;;;5016399;28;19921;-74
2022/07/19 07:03:45;;;;;;;;;;;25.90;58.50;;;;;;5001136;28;19921;-74
2022/07/19 07:06:13;;;;;;;;;;;25.90;58.50;;;;;;5001043;28;19921;-72
2022/07/19 07:08:40;;;;;;;;;;;26.00;58.00;;;;;;5016310;28;19925;-73
2022/07/19 07:11:07;;;;;;;;;;;26.10;57.80;;;;;;5017375;28;20264;-73
2022/07/19 07:13:35;;;;;;;;;;;26.20;57.30;;;;;;5034740;28;20024;-73
2022/07/19 07:16:03;;;;;;;;;;;26.30;56.40;;;;;;5017371;28;19928;-75
2022/07/19 07:18:30;;;;;;;;;;;26.50;56.50;;;;;;5017309;28;19932;-73
2022/07/19 07:20:58;;;;;;;;;;;26.60;56.80;;;;;;5033618;28;19921;-74
2022/07/19 07:23:25;;;;;;;;;;;26.60;56.90;;;;;;5017248;28;20279;-72
2022/07/19 07:25:53;;;;;;;;;;;26.70;56.70;;;;;;5017370;28;19932;-72
2022/07/19 07:28:21;;;;;;;;;;;26.80;56.40;;;;;;5033679;28;19932;-71
2022/07/19 07:30:53;;;;;;;;;;;26.80;56.70;;;;;;5034665;28;19921;-72
2022/07/19 07:33:21;;;;;;;;;;;26.90;56.10;;;;;;5030319;28;20286;-72
2022/07/19 07:35:48;;;;;;;;;;;26.90;55.60;;;;;;5007874;28;19929;-73
2022/07/19 07:38:16;;;;;;;;;;;27.10;55.50;;;;;;5028214;28;19921;-75
2022/07/19 07:40:46;;;;;;;;;;;27.10;55.50;;;;;;5025807;28;19929;-72
2022/07/19 07:43:13;;;;;;;;;;;27.20;55.40;;;;;;5027727;28;20267;-72
2022/07/19 07:45:42;;;;;;;;;;;27.20;55.70;;;;;;5010300;28;20275;-72
2022/07/19 07:48:09;;;;;;;;;;;27.20;55.40;;;;;;5027945;28;19921;-72
2022/07/19 07:50:37;;;;;;;;;;;27.30;54.70;;;;;;5010931;28;19921;-75
2022/07/19 07:53:04;;;;;;;;;;;27.40;54.70;;;;;;5010190;28;20352;-73
2022/07/19 07:55:37;;;;;;;;;;;27.60;54.10;;;;;;5008912;28;19944;-74
2022/07/19 07:58:06;;;;;;;;;;;27.70;54.30;;;;;;5027197;28;19921;-73
2022/07/19 08:00:34;;;;;;;;;;;27.70;54.20;;;;;;5026196;28;19923;-73
2022/07/19 08:03:02;;;;;;;;;;;27.80;53.90;;;;;;5027473;28;19925;-73
2022/07/19 08:05:31;;;;;;;;;;;27.90;54.60;;;;;;5028896;28;19932;-72
2022/07/19 08:07:59;;;;;;;;;;;28.00;54.20;;;;;;5026882;28;19921;-73
2022/07/19 08:10:28;;;;;;;;;;;28.00;54.50;;;;;;5026685;28;19929;-73
2022/07/19 08:12:55;;;;;;;;;;;28.10;54.00;;;;;;5011067;28;19929;-73
2022/07/19 08:15:23;;;;;;;;;;;28.10;53.80;;;;;;5027299;28;19921;-72
2022/07/19 08:17:50;;;;;;;;;;;28.30;53.30;;;;;;5026563;28;19921;-73
2022/07/19 08:20:18;;;;;;;;;;;28.40;53.30;;;;;;5026518;28;19921;-73
2022/07/19 08:22:45;;;;;;;;;;;28.40;53.10;;;;;;5028422;28;19921;-72
2022/07/19 08:25:16;;;;;;;;;;;28.60;53.60;;;;;;5009457;28;19941;-72
2022/07/19 08:27:44;;;;;;;;;;;28.50;52.90;;;;;;5010689;28;19921;-73
2022/07/19 08:30:12;;;;;;;;;;;28.60;53.20;;;;;;5020974;28;19944;-72
2022/07/19 08:32:40;;;;;;;;;;;28.70;53.50;;;;;;5037546;28;19932;-72
2022/07/19 08:35:08;;;;;;;;;;;28.70;53.60;;;;;;5037035;28;19928;-73
2022/07/19 08:37:36;;;;;;;;;;;28.70;53.50;;;;;;5036785;28;19932;-73
2022/07/19 08:40:05;;;;;;;;;;;28.80;53.70;;;;;;5037488;28;19928;-72
2022/07/19 08:42:37;;;;;;;;;;;28.90;52.90;;;;;;5020208;28;19920;-73
2022/07/19 08:45:07;;;;;;;;;;;29.00;53.00;;;;;;5037939;28;19940;-73
2022/07/19 08:47:35;;;;;;;;;;;29.10;53.10;;;;;;5018759;28;19921;-74
2022/07/19 08:50:04;;;;;;;;;;;29.20;53.30;;;;;;5017558;28;19944;-72
2022/07/19 08:52:33;;;;;;;;;;;29.10;53.60;;;;;;5017513;28;19944;-74
2022/07/19 08:55:01;;;;;;;;;;;29.20;53.80;;;;;;4999308;28;19925;-73
2022/07/19 09:00:14;;;;;;;;;;;29.30;53.60;;;;;;5000266;28;19921;-72
2022/07/19 09:02:56;;;;;;;;;;;29.40;53.40;;;;;;5000387;28;19921;-72
2022/07/19 09:05:24;;;;;;;;;;;29.50;53.60;;;;;;5016190;28;19921;-72
2022/07/19 09:08:10;;;;;;;;;;;29.50;53.60;;;;;;5015835;28;19933;-72
2022/07/19 09:10:43;;;;;;;;;;;29.60;53.40;;;;;;5000457;28;19921;-70
2022/07/19 09:13:14;;;;;;;;;;;29.60;53.50;;;;;;5016272;28;20360;-71
2022/07/19 09:15:45;;;;;;;;;;;29.70;53.40;;;;;;4998657;28;20332;-70
2022/07/19 09:18:13;;;;;;;;;;;29.80;53.70;;;;;;5016966;28;19929;-70
2022/07/19 09:20:40;;;;;;;;;;;29.80;54.10;;;;;;5015859;28;19944;-71
2022/07/19 09:23:08;;;;;;;;;;;29.90;53.30;;;;;;4999569;28;20267;-71
2022/07/19 09:25:35;;;;;;;;;;;30.00;53.30;;;;;;5016780;28;19928;-72
2022/07/19 09:28:03;;;;;;;;;;;30.00;54.10;;;;;;4998202;28;19954;-71
2022/07/19 09:30:37;;;;;;;;;;;30.00;54.40;;;;;;4999518;28;19944;-70
2022/07/19 09:33:20;;;;;;;;;;;30.00;54.50;;;;;;5016604;28;19921;-71
2022/07/19 09:35:52;;;;;;;;;;;30.10;53.90;;;;;;4998335;28;19928;-71
2022/07/19 09:38:25;;;;;;;;;;;30.20;53.60;;;;;;5027555;28;19944;-71
2022/07/19 09:40:54;;;;;;;;;;;30.40;53.60;;;;;;5034114;28;19935;-71
2022/07/19 09:43:24;;;;;;;;;;;30.50;54.00;;;;;;5035921;28;19925;-71
2022/07/19 09:46:28;;;;;;;;;;;30.50;54.20;;;;;;5035548;28;19921;-72
2022/07/19 09:49:25;;;;;;;;;;;30.50;54.10;;;;;;5017867;28;19921;-72
2022/07/19 09:51:54;;;;;;;;;;;30.50;53.80;;;;;;5014658;28;19921;-71
2022/07/19 09:54:22;;;;;;;;;;;30.60;53.50;;;;;;5035076;28;19932;-71
2022/07/19 09:56:50;;;;;;;;;;;30.80;53.00;;;;;;5034819;28;19927;-72
2022/07/19 09:59:18;;;;;;;;;;;30.90;52.80;;;;;;5035294;28;20410;-70
2022/07/19 10:01:46;;;;;;;;;;;31.10;52.20;;;;;;5034816;28;20348;-70
2022/07/19 10:04:14;;;;;;;;;;;31.20;52.50;;;;;;5035776;28;19921;-72
2022/07/19 10:06:42;;;;;;;;;;;31.40;51.00;;;;;;5035732;28;20272;-71
2022/07/19 10:09:11;;;;;;;;;;;31.50;51.70;;;;;;5017238;28;20364;-71
2022/07/19 10:11:39;;;;;;;;;;;31.50;51.30;;;;;;5035338;28;19921;-72
2022/07/19 10:14:07;;;;;;;;;;;31.60;50.50;;;;;;5017130;28;19932;-72
2022/07/19 10:16:34;;;;;;;;;;;31.80;50.00;;;;;;5034643;28;20253;-72
2022/07/19 10:19:04;;;;;;;;;;;32.00;50.10;;;;;;5034648;28;19924;-72
2022/07/19 10:21:32;;;;;;;;;;;32.10;50.90;;;;;;5033463;28;20394;-72
2022/07/19 10:24:00;;;;;;;;;;;32.10;50.40;;;;;;5035453;28;19932;-70
2022/07/19 10:26:41;;;;;;;;;;;32.10;49.00;;;;;;5035060;28;19921;-72
2022/07/19 10:29:09;;;;;;;;;;;32.20;48.60;;;;;;5033413;28;19921;-71
2022/07/19 10:31:38;;;;;;;;;;;32.30;49.10;;;;;;5035256;28;19928;-71
2022/07/19 10:34:07;;;;;;;;;;;32.30;47.60;;;;;;5033302;28;19928;-71
2022/07/19 10:36:39;;;;;;;;;;;32.50;48.20;;;;;;5034064;28;19920;-71
2022/07/19 10:39:19;;;;;;;;;;;32.50;47.10;;;;;;5017792;28;19932;-72
2022/07/19 10:42:06;;;;;;;;;;;32.60;47.40;;;;;;5033885;28;19928;-69
2022/07/19 10:44:34;;;;;;;;;;;32.70;46.20;;;;;;5034342;28;19932;-71
2022/07/19 10:47:02;;;;;;;;;;;32.90;46.50;;;;;;5033055;28;19925;-70
2022/07/19 10:49:43;;;;;;;;;;;33.00;46.70;;;;;;5034914;28;20267;-71
2022/07/19 10:52:25;;;;;;;;;;;33.00;46.90;;;;;;5035111;28;20276;-70
2022/07/19 10:55:11;;;;;;;;;;;32.80;45.80;;;;;;5033593;28;19921;-70
2022/07/19 10:57:39;;;;;;;;;;;33.10;46.00;;;;;;5034911;28;19921;-70
2022/07/19 11:00:15;;;;;;;;;;;33.30;45.10;;;;;;5033887;28;19925;-70
2022/07/19 11:02:43;;;;;;;;;;;33.40;44.80;;;;;;5034867;28;19921;-72
2022/07/19 11:05:25;;;;;;;;;;;33.70;45.40;;;;;;5034823;28;19932;-71
2022/07/19 11:07:54;;;;;;;;;;;33.70;44.30;;;;;;5032837;28;19921;-70
2022/07/19 11:10:27;;;;;;;;;;;33.70;44.20;;;;;;5016362;28;20268;-71
2022/07/19 11:12:56;;;;;;;;;;;33.80;44.00;;;;;;5035678;28;19921;-70
2022/07/19 11:15:27;;;;;;;;;;;33.90;45.30;;;;;;5033342;28;19932;-71
2022/07/19 11:18:03;;;;;;;;;;;33.80;43.90;;;;;;5051776;28;19932;-72
2022/07/19 11:20:32;;;;;;;;;;;33.70;44.20;;;;;;5053789;28;20355;-70
2022/07/19 11:23:00;;;;;;;;;;;33.70;44.40;;;;;;5054796;28;19920;-70
2022/07/19 11:25:29;;;;;;;;;;;33.70;44.60;;;;;;5054827;28;20283;-72
2022/07/19 11:27:57;;;;;;;;;;;33.80;44.10;;;;;;5053661;28;19936;-72
2022/07/19 11:30:25;;;;;;;;;;;33.90;43.80;;;;;;5037454;28;20355;-72
2022/07/19 11:32:53;;;;;;;;;;;34.00;43.60;;;;;;5054910;28;20344;-71
2022/07/19 11:35:21;;;;;;;;;;;34.10;42.80;;;;;;5053417;28;19921;-73
2022/07/19 11:37:51;;;;;;;;;;;34.10;42.80;;;;;;5037149;28;19924;-72
2022/07/19 11:40:19;;;;;;;;;;;34.10;43.10;;;;;;5053177;28;20385;-72
2022/07/19 11:42:47;;;;;;;;;;;34.10;42.80;;;;;;5052654;28;19928;-69
2022/07/19 11:45:42;;;;;;;;;;;34.30;42.90;;;;;;5053884;28;19944;-71
2022/07/19 11:48:12;;;;;;;;;;;34.40;42.40;;;;;;5053288;28;20351;-70
2022/07/19 11:50:41;;;;;;;;;;;34.60;42.20;;;;;;5054265;28;19920;-71
2022/07/19 11:53:18;;;;;;;;;;;34.70;42.00;;;;;;5053607;28;20355;-71
2022/07/19 11:55:47;;;;;;;;;;;34.70;41.80;;;;;;5053264;28;19920;-70
2022/07/19 11:58:15;;;;;;;;;;;34.70;42.10;;;;;;5053915;28;19920;-70
2022/07/19 12:00:43;;;;;;;;;;;34.70;41.80;;;;;;5052320;28;19924;-70
2022/07/19 12:03:18;;;;;;;;;;;34.70;42.70;;;;;;5053294;28;19921;-71
2022/07/19 12:05:57;;;;;;;;;;;34.70;42.90;;;;;;5054236;28;19921;-71
2022/07/19 12:08:34;;;;;;;;;;;34.60;43.10;;;;;;5052337;28;19921;-71
2022/07/19 12:11:14;;;;;;;;;;;34.60;42.00;;;;;;5053038;28;19921;-70
2022/07/19 12:13:42;;;;;;;;;;;34.80;41.40;;;;;;5053050;28;19950;-71
2022/07/19 12:16:16;;;;;;;;;;;34.90;40.90;;;;;;5054189;28;19931;-70
2022/07/19 12:18:51;;;;;;;;;;;35.00;41.10;;;;;;5054055;28;19920;-71
2022/07/19 12:21:31;;;;;;;;;;;35.00;41.50;;;;;;5053326;28;19928;-72
2022/07/19 12:24:17;;;;;;;;;;;35.10;41.80;;;;;;5057348;28;19920;-71
2022/07/19 12:26:51;;;;;;;;;;;35.10;41.80;;;;;;5057075;28;19943;-71
2022/07/19 12:29:30;;;;;;;;;;;35.20;41.20;;;;;;5052075;28;19920;-74
2022/07/19 12:32:05;;;;;;;;;;;35.30;41.00;;;;;;5053855;28;19921;-72
2022/07/19 12:34:46;;;;;;;;;;;35.30;41.30;;;;;;5056833;28;19924;-72
2022/07/19 12:37:18;;;;;;;;;;;35.40;41.60;;;;;;5056372;28;19921;-73
2022/07/19 12:40:05;;;;;;;;;;;35.40;41.50;;;;;;5057474;28;19920;-74
2022/07/19 12:42:39;;;;;;;;;;;35.50;40.80;;;;;;5055793;28;20347;-74
2022/07/19 12:45:15;;;;;;;;;;;35.60;40.40;;;;;;5056727;28;19920;-72
2022/07/19 12:47:43;;;;;;;;;;;35.70;40.20;;;;;;5055075;28;19936;-73
2022/07/19 12:50:18;;;;;;;;;;;35.80;39.60;;;;;;5020210;28;19921;-71
2022/07/19 12:52:46;;;;;;;;;;;35.80;40.00;;;;;;5037463;28;19921;-71
2022/07/19 12:55:13;;;;;;;;;;;35.80;40.30;;;;;;5036249;28;19932;-71
2022/07/19 12:57:47;;;;;;;;;;;35.80;41.00;;;;;;5037467;28;20362;-73
2022/07/19 13:00:15;;;;;;;;;;;35.80;42.70;;;;;;5037575;28;19921;-72
2022/07/19 13:02:44;;;;;;;;;;;35.90;42.50;;;;;;5037172;28;19924;-72
2022/07/19 13:05:11;;;;;;;;;;;36.00;42.30;;;;;;5053535;28;19921;-72
2022/07/19 13:07:39;;;;;;;;;;;36.10;42.10;;;;;;5036222;28;20355;-72
2022/07/19 13:10:07;;;;;;;;;;;36.10;41.90;;;;;;5036452;28;19928;-73
2022/07/19 13:12:35;;;;;;;;;;;36.10;42.20;;;;;;5035860;28;19932;-72
2022/07/19 13:15:05;;;;;;;;;;;36.20;41.90;;;;;;5034594;28;19921;-72
2022/07/19 13:17:33;;;;;;;;;;;36.20;42.00;;;;;;5036064;28;19984;-72
2022/07/19 13:20:01;;;;;;;;;;;36.20;42.00;;;;;;5036951;28;19921;-72
2022/07/19 13:22:28;;;;;;;;;;;36.20;42.00;;;;;;5034679;28;19921;-72
2022/07/19 13:24:55;;;;;;;;;;;36.20;41.50;;;;;;5037091;28;19928;-72
2022/07/19 13:27:43;;;;;;;;;;;36.30;41.70;;;;;;5034269;28;19921;-72
2022/07/19 13:30:10;;;;;;;;;;;36.20;42.30;;;;;;5053004;28;19975;-72
2022/07/19 13:32:39;;;;;;;;;;;36.30;42.00;;;;;;5035946;28;20275;-72
2022/07/19 13:35:06;;;;;;;;;;;36.40;41.70;;;;;;5035965;28;20030;-72
2022/07/19 13:37:34;;;;;;;;;;;36.40;41.90;;;;;;5029156;28;19956;-72
2022/07/19 13:40:02;;;;;;;;;;;36.50;41.40;;;;;;5016969;28;19922;-72
2022/07/19 13:42:29;;;;;;;;;;;36.40;41.40;;;;;;4998368;28;20295;-72
2022/07/19 13:44:57;;;;;;;;;;;36.50;41.70;;;;;;5016772;28;19922;-72
2022/07/19 13:47:24;;;;;;;;;;;36.60;41.40;;;;;;4998857;28;20003;-72
2022/07/19 13:49:52;;;;;;;;;;;36.70;41.30;;;;;;4999652;28;19921;-72
2022/07/19 13:52:19;;;;;;;;;;;36.80;41.30;;;;;;4983206;28;19933;-72
2022/07/19 13:54:46;;;;;;;;;;;36.90;40.90;;;;;;4998169;28;20275;-72
2022/07/19 13:57:14;;;;;;;;;;;36.90;41.10;;;;;;5016493;28;19921;-71
2022/07/19 13:59:42;;;;;;;;;;;37.00;41.30;;;;;;5032311;28;19929;-72
2022/07/19 14:02:11;;;;;;;;;;;37.10;41.10;;;;;;5015428;28;19929;-72
2022/07/19 14:04:39;;;;;;;;;;;37.10;41.20;;;;;;5016391;28;19928;-72
2022/07/19 14:07:06;;;;;;;;;;;37.30;40.70;;;;;;4998224;28;19921;-72
2022/07/19 14:09:36;;;;;;;;;;;37.30;40.60;;;;;;5016355;28;19932;-71
2022/07/19 14:12:10;;;;;;;;;;;37.30;40.50;;;;;;5000243;28;19921;-72
2022/07/19 14:14:38;;;;;;;;;;;37.40;40.50;;;;;;5015340;28;19921;-71
2022/07/19 14:17:05;;;;;;;;;;;37.50;40.20;;;;;;5016232;28;19944;-72
2022/07/19 14:19:35;;;;;;;;;;;37.50;40.10;;;;;;5016341;28;20327;-72
2022/07/19 14:22:03;;;;;;;;;;;37.60;41.00;;;;;;4997784;28;19928;-72
2022/07/19 14:24:30;;;;;;;;;;;37.60;40.20;;;;;;4998966;28;19921;-72
2022/07/19 14:26:57;;;;;;;;;;;37.70;40.20;;;;;;5015783;28;19944;-72
2022/07/19 14:29:25;;;;;;;;;;;37.70;40.80;;;;;;5016017;28;19928;-72